ADDS METAR Data INFO
IDs: Format: Raw Decoded Include TAF

Data at: 1133 UTC 17 Jul 2018

METAR for:TKPK (St Kitts/Bradshaw In, --, AT)
Text:TKPK 171100Z 07012KT 9999 VCSH SCT018 27/23 Q1019
Temperature: 27.0°C ( 81°F)
Dewpoint: 23.0°C ( 73°F) [RH = 79%]
Pressure (altimeter):30.09 inches Hg (1019.0 mb)
Winds:from the ENE (70 degrees) at 14 MPH (12 knots; 6.2 m/s)
Visibility:6 or more sm (10+ km)
Ceiling:at least 12,000 feet AGL
Clouds: scattered clouds at 1800 feet AGL
Weather:VCSH (showers in vicinity)